sensor_id;sensor_type;location;lat;lon;timestamp;temperature;humidity
7427;DHT22;3755;59.316;18.092;2023-08-17T00:00:26;17.60;99.90
7427;DHT22;3755;59.316;18.092;2023-08-17T00:02:53;17.50;99.90
7427;DHT22;3755;59.316;18.092;2023-08-17T00:05:20;17.50;99.90
7427;DHT22;3755;59.316;18.092;2023-08-17T00:07:47;17.40;99.90
7427;DHT22;3755;59.316;18.092;2023-08-17T00:10:16;17.40;99.90
7427;DHT22;3755;59.316;18.092;2023-08-17T00:12:43;17.30;99.90
7427;DHT22;3755;59.316;18.092;2023-08-17T00:15:10;17.30;99.90
7427;DHT22;3755;59.316;18.092;2023-08-17T00:17:38;17.30;99.90
7427;DHT22;3755;59.316;18.092;2023-08-17T00:20:06;17.30;99.90
7427;DHT22;3755;59.316;18.092;2023-08-17T00:22:35;17.20;99.90
7427;DHT22;3755;59.316;18.092;2023-08-17T00:25:03;17.20;99.90
7427;DHT22;3755;59.316;18.092;2023-08-17T00:27:32;17.20;99.90
7427;DHT22;3755;59.316;18.092;2023-08-17T00:29:59;17.20;99.90
7427;DHT22;3755;59.316;18.092;2023-08-17T00:32:26;17.20;99.90
7427;DHT22;3755;59.316;18.092;2023-08-17T00:34:53;17.10;99.90
7427;DHT22;3755;59.316;18.092;2023-08-17T00:37:20;17.10;99.90
7427;DHT22;3755;59.316;18.092;2023-08-17T00:39:47;17.10;99.90
7427;DHT22;3755;59.316;18.092;2023-08-17T00:42:15;17.00;99.90
7427;DHT22;3755;59.316;18.092;2023-08-17T00:44:43;17.00;99.90
7427;DHT22;3755;59.316;18.092;2023-08-17T00:47:10;17.00;99.90
7427;DHT22;3755;59.316;18.092;2023-08-17T00:49:37;17.00;99.90
7427;DHT22;3755;59.316;18.092;2023-08-17T00:52:05;17.00;99.90
7427;DHT22;3755;59.316;18.092;2023-08-17T00:54:32;16.90;99.90
7427;DHT22;3755;59.316;18.092;2023-08-17T00:56:59;16.90;99.90
7427;DHT22;3755;59.316;18.092;2023-08-17T00:59:27;16.90;99.90
7427;DHT22;3755;59.316;18.092;2023-08-17T01:01:56;16.80;99.90
7427;DHT22;3755;59.316;18.092;2023-08-17T01:04:23;16.80;99.90
7427;DHT22;3755;59.316;18.092;2023-08-17T01:06:50;16.80;99.90
7427;DHT22;3755;59.316;18.092;2023-08-17T01:09:18;16.80;99.90
7427;DHT22;3755;59.316;18.092;2023-08-17T01:11:49;16.80;99.90
7427;DHT22;3755;59.316;18.092;2023-08-17T01:14:31;16.70;99.90
7427;DHT22;3755;59.316;18.092;2023-08-17T01:17:03;16.70;99.90
7427;DHT22;3755;59.316;18.092;2023-08-17T01:19:33;16.70;99.90
7427;DHT22;3755;59.316;18.092;2023-08-17T01:22:05;16.70;99.90
7427;DHT22;3755;59.316;18.092;2023-08-17T01:24:34;16.60;99.90
7427;DHT22;3755;59.316;18.092;2023-08-17T01:27:01;16.60;99.90
7427;DHT22;3755;59.316;18.092;2023-08-17T01:29:28;16.60;99.90
7427;DHT22;3755;59.316;18.092;2023-08-17T01:32:03;16.60;99.90
7427;DHT22;3755;59.316;18.092;2023-08-17T01:34:33;16.60;99.90
7427;DHT22;3755;59.316;18.092;2023-08-17T01:37:02;16.70;99.90
7427;DHT22;3755;59.316;18.092;2023-08-17T01:39:37;16.70;99.90
7427;DHT22;3755;59.316;18.092;2023-08-17T01:42:06;16.80;99.90
7427;DHT22;3755;59.316;18.092;2023-08-17T01:44:34;16.80;99.90
7427;DHT22;3755;59.316;18.092;2023-08-17T01:47:01;16.80;99.90
7427;DHT22;3755;59.316;18.092;2023-08-17T01:49:29;16.80;99.90
7427;DHT22;3755;59.316;18.092;2023-08-17T01:51:56;16.90;99.90
7427;DHT22;3755;59.316;18.092;2023-08-17T01:54:23;16.90;99.90
7427;DHT22;3755;59.316;18.092;2023-08-17T01:56:52;16.80;99.90
7427;DHT22;3755;59.316;18.092;2023-08-17T01:59:19;16.80;99.90
7427;DHT22;3755;59.316;18.092;2023-08-17T02:01:46;16.80;99.90
7427;DHT22;3755;59.316;18.092;2023-08-17T02:04:14;16.90;99.90
7427;DHT22;3755;59.316;18.092;2023-08-17T02:06:41;16.90;99.90
7427;DHT22;3755;59.316;18.092;2023-08-17T02:09:08;16.90;99.90
7427;DHT22;3755;59.316;18.092;2023-08-17T02:11:36;16.80;99.90
7427;DHT22;3755;59.316;18.092;2023-08-17T02:14:04;16.90;99.90
7427;DHT22;3755;59.316;18.092;2023-08-17T02:16:31;16.90;99.90
7427;DHT22;3755;59.316;18.092;2023-08-17T02:19:00;16.90;99.90
7427;DHT22;3755;59.316;18.092;2023-08-17T02:21:27;16.80;99.90
7427;DHT22;3755;59.316;18.092;2023-08-17T02:23:54;16.90;99.90
7427;DHT22;3755;59.316;18.092;2023-08-17T02:26:21;16.90;99.90
7427;DHT22;3755;59.316;18.092;2023-08-17T02:28:48;16.90;99.90
7427;DHT22;3755;59.316;18.092;2023-08-17T02:31:17;16.90;99.90
7427;DHT22;3755;59.316;18.092;2023-08-17T02:33:44;16.80;99.90
7427;DHT22;3755;59.316;18.092;2023-08-17T02:36:11;16.80;99.90
7427;DHT22;3755;59.316;18.092;2023-08-17T02:38:38;16.80;99.90
7427;DHT22;3755;59.316;18.092;2023-08-17T02:41:05;16.80;99.90
7427;DHT22;3755;59.316;18.092;2023-08-17T02:43:32;16.80;99.90
7427;DHT22;3755;59.316;18.092;2023-08-17T02:45:59;16.80;99.90
7427;DHT22;3755;59.316;18.092;2023-08-17T02:48:28;16.80;99.90
7427;DHT22;3755;59.316;18.092;2023-08-17T02:50:55;16.80;99.90
7427;DHT22;3755;59.316;18.092;2023-08-17T02:53:22;16.80;99.90
7427;DHT22;3755;59.316;18.092;2023-08-17T02:55:49;16.80;99.90
7427;DHT22;3755;59.316;18.092;2023-08-17T02:58:16;16.80;99.90
7427;DHT22;3755;59.316;18.092;2023-08-17T03:00:44;16.80;99.90
7427;DHT22;3755;59.316;18.092;2023-08-17T03:03:11;16.80;99.90
7427;DHT22;3755;59.316;18.092;2023-08-17T03:05:39;16.70;99.90
7427;DHT22;3755;59.316;18.092;2023-08-17T03:08:06;16.70;99.90
7427;DHT22;3755;59.316;18.092;2023-08-17T03:10:34;16.60;99.90
7427;DHT22;3755;59.316;18.092;2023-08-17T03:13:01;16.60;99.90
7427;DHT22;3755;59.316;18.092;2023-08-17T03:15:28;16.50;99.90
7427;DHT22;3755;59.316;18.092;2023-08-17T03:17:55;16.50;99.90
7427;DHT22;3755;59.316;18.092;2023-08-17T03:20:22;16.50;99.90
7427;DHT22;3755;59.316;18.092;2023-08-17T03:22:51;16.40;99.90
7427;DHT22;3755;59.316;18.092;2023-08-17T03:25:18;16.40;99.90
7427;DHT22;3755;59.316;18.092;2023-08-17T03:27:46;16.40;99.90
7427;DHT22;3755;59.316;18.092;2023-08-17T03:30:13;16.30;99.90
7427;DHT22;3755;59.316;18.092;2023-08-17T03:32:40;16.30;99.90
7427;DHT22;3755;59.316;18.092;2023-08-17T03:35:08;16.40;99.90
7427;DHT22;3755;59.316;18.092;2023-08-17T03:37:37;16.40;99.90
7427;DHT22;3755;59.316;18.092;2023-08-17T03:40:06;16.40;99.90
7427;DHT22;3755;59.316;18.092;2023-08-17T03:42:34;16.40;99.90
7427;DHT22;3755;59.316;18.092;2023-08-17T03:45:01;16.50;99.90
7427;DHT22;3755;59.316;18.092;2023-08-17T03:47:28;16.50;99.90
7427;DHT22;3755;59.316;18.092;2023-08-17T03:49:56;16.60;99.90
7427;DHT22;3755;59.316;18.092;2023-08-17T03:52:23;16.50;99.90
7427;DHT22;3755;59.316;18.092;2023-08-17T03:54:50;16.50;99.90
7427;DHT22;3755;59.316;18.092;2023-08-17T03:57:19;16.50;99.90
7427;DHT22;3755;59.316;18.092;2023-08-17T03:59:46;16.60;99.90
7427;DHT22;3755;59.316;18.092;2023-08-17T04:02:13;16.70;99.90
7427;DHT22;3755;59.316;18.092;2023-08-17T04:04:40;16.80;99.90
7427;DHT22;3755;59.316;18.092;2023-08-17T04:07:07;16.90;99.90
7427;DHT22;3755;59.316;18.092;2023-08-17T04:09:35;17.20;99.90
7427;DHT22;3755;59.316;18.092;2023-08-17T04:12:02;17.50;99.90
7427;DHT22;3755;59.316;18.092;2023-08-17T04:14:32;17.80;99.90
7427;DHT22;3755;59.316;18.092;2023-08-17T04:16:59;18.10;99.90
7427;DHT22;3755;59.316;18.092;2023-08-17T04:19:26;18.10;99.90
7427;DHT22;3755;59.316;18.092;2023-08-17T04:21:53;17.90;99.90
7427;DHT22;3755;59.316;18.092;2023-08-17T04:24:20;17.80;99.90
7427;DHT22;3755;59.316;18.092;2023-08-17T04:26:47;17.70;99.90
7427;DHT22;3755;59.316;18.092;2023-08-17T04:29:14;17.70;99.90
7427;DHT22;3755;59.316;18.092;2023-08-17T04:31:43;17.60;99.90
7427;DHT22;3755;59.316;18.092;2023-08-17T04:34:11;17.60;99.90
7427;DHT22;3755;59.316;18.092;2023-08-17T04:36:38;17.70;99.90
7427;DHT22;3755;59.316;18.092;2023-08-17T04:39:05;17.80;99.90
7427;DHT22;3755;59.316;18.092;2023-08-17T04:41:34;17.90;99.90
7427;DHT22;3755;59.316;18.092;2023-08-17T04:44:02;18.10;99.90
7427;DHT22;3755;59.316;18.092;2023-08-17T04:46:29;18.50;99.90
7427;DHT22;3755;59.316;18.092;2023-08-17T04:48:57;18.90;99.90
7427;DHT22;3755;59.316;18.092;2023-08-17T04:51:25;19.20;99.90
7427;DHT22;3755;59.316;18.092;2023-08-17T04:53:52;18.60;99.90
7427;DHT22;3755;59.316;18.092;2023-08-17T04:56:20;18.30;99.90
7427;DHT22;3755;59.316;18.092;2023-08-17T04:58:47;18.00;99.90
7427;DHT22;3755;59.316;18.092;2023-08-17T05:01:14;18.00;99.90
7427;DHT22;3755;59.316;18.092;2023-08-17T05:03:41;18.00;99.90
7427;DHT22;3755;59.316;18.092;2023-08-17T05:06:10;17.80;99.90
7427;DHT22;3755;59.316;18.092;2023-08-17T05:08:37;17.70;99.90
7427;DHT22;3755;59.316;18.092;2023-08-17T05:11:04;17.70;99.90
7427;DHT22;3755;59.316;18.092;2023-08-17T05:13:32;17.70;99.90
7427;DHT22;3755;59.316;18.092;2023-08-17T05:15:59;17.70;99.90
7427;DHT22;3755;59.316;18.092;2023-08-17T05:18:26;17.70;99.90
7427;DHT22;3755;59.316;18.092;2023-08-17T05:20:54;17.80;99.90
7427;DHT22;3755;59.316;18.092;2023-08-17T05:23:22;18.00;99.90
7427;DHT22;3755;59.316;18.092;2023-08-17T05:25:49;18.10;99.90
7427;DHT22;3755;59.316;18.092;2023-08-17T05:28:16;18.00;99.90
7427;DHT22;3755;59.316;18.092;2023-08-17T05:30:44;18.10;99.90
7427;DHT22;3755;59.316;18.092;2023-08-17T05:33:11;18.00;99.90
7427;DHT22;3755;59.316;18.092;2023-08-17T05:35:38;17.90;99.90
7427;DHT22;3755;59.316;18.092;2023-08-17T05:38:05;17.90;99.90
7427;DHT22;3755;59.316;18.092;2023-08-17T05:40:34;17.80;99.90
7427;DHT22;3755;59.316;18.092;2023-08-17T05:43:01;17.80;99.90
7427;DHT22;3755;59.316;18.092;2023-08-17T05:45:28;17.90;99.90
7427;DHT22;3755;59.316;18.092;2023-08-17T05:47:55;17.90;99.90
7427;DHT22;3755;59.316;18.092;2023-08-17T05:50:22;18.00;99.90
7427;DHT22;3755;59.316;18.092;2023-08-17T05:52:50;18.00;99.90
7427;DHT22;3755;59.316;18.092;2023-08-17T05:55:17;18.10;99.90
7427;DHT22;3755;59.316;18.092;2023-08-17T05:57:49;18.00;99.90
7427;DHT22;3755;59.316;18.092;2023-08-17T06:00:16;18.00;99.90
7427;DHT22;3755;59.316;18.092;2023-08-17T06:02:43;18.00;99.90
7427;DHT22;3755;59.316;18.092;2023-08-17T06:05:15;18.20;99.90
7427;DHT22;3755;59.316;18.092;2023-08-17T06:07:43;18.30;99.90
7427;DHT22;3755;59.316;18.092;2023-08-17T06:10:10;18.40;99.90
7427;DHT22;3755;59.316;18.092;2023-08-17T06:12:38;18.40;99.90
7427;DHT22;3755;59.316;18.092;2023-08-17T06:15:08;18.40;99.90
7427;DHT22;3755;59.316;18.092;2023-08-17T06:17:35;18.40;99.90
7427;DHT22;3755;59.316;18.092;2023-08-17T06:20:03;18.50;99.90
7427;DHT22;3755;59.316;18.092;2023-08-17T06:22:30;18.50;99.90
7427;DHT22;3755;59.316;18.092;2023-08-17T06:24:58;18.50;99.90
7427;DHT22;3755;59.316;18.092;2023-08-17T06:27:25;18.60;99.90
7427;DHT22;3755;59.316;18.092;2023-08-17T06:29:52;18.70;99.90
7427;DHT22;3755;59.316;18.092;2023-08-17T06:32:21;18.90;99.90
7427;DHT22;3755;59.316;18.092;2023-08-17T06:34:48;19.00;99.90
7427;DHT22;3755;59.316;18.092;2023-08-17T06:37:15;19.00;99.90
7427;DHT22;3755;59.316;18.092;2023-08-17T06:39:43;19.10;99.90
7427;DHT22;3755;59.316;18.092;2023-08-17T06:42:10;19.10;99.90
7427;DHT22;3755;59.316;18.092;2023-08-17T06:44:37;19.10;99.90
7427;DHT22;3755;59.316;18.092;2023-08-17T06:47:04;19.10;99.90
7427;DHT22;3755;59.316;18.092;2023-08-17T06:49:34;19.10;99.90
7427;DHT22;3755;59.316;18.092;2023-08-17T06:52:01;19.10;99.90
7427;DHT22;3755;59.316;18.092;2023-08-17T06:54:28;19.20;99.90
7427;DHT22;3755;59.316;18.092;2023-08-17T06:56:57;19.30;99.90
7427;DHT22;3755;59.316;18.092;2023-08-17T06:59:25;19.40;99.90
7427;DHT22;3755;59.316;18.092;2023-08-17T07:01:52;19.60;99.90
7427;DHT22;3755;59.316;18.092;2023-08-17T07:04:19;19.60;99.90
7427;DHT22;3755;59.316;18.092;2023-08-17T07:06:48;19.80;99.90
7427;DHT22;3755;59.316;18.092;2023-08-17T07:09:16;19.80;99.90
7427;DHT22;3755;59.316;18.092;2023-08-17T07:11:44;20.00;99.90
7427;DHT22;3755;59.316;18.092;2023-08-17T07:14:11;20.00;99.90
7427;DHT22;3755;59.316;18.092;2023-08-17T07:16:38;19.90;99.90
7427;DHT22;3755;59.316;18.092;2023-08-17T07:19:05;19.90;99.90
7427;DHT22;3755;59.316;18.092;2023-08-17T07:21:33;19.80;99.90
7427;DHT22;3755;59.316;18.092;2023-08-17T07:24:11;19.80;99.90
7427;DHT22;3755;59.316;18.092;2023-08-17T07:26:39;19.80;99.90
7427;DHT22;3755;59.316;18.092;2023-08-17T07:29:06;20.00;99.90
7427;DHT22;3755;59.316;18.092;2023-08-17T07:31:33;20.10;99.90
7427;DHT22;3755;59.316;18.092;2023-08-17T07:34:03;20.00;99.90
7427;DHT22;3755;59.316;18.092;2023-08-17T07:36:31;20.00;99.90
7427;DHT22;3755;59.316;18.092;2023-08-17T07:38:58;19.90;99.90
7427;DHT22;3755;59.316;18.092;2023-08-17T07:41:27;19.70;99.90
7427;DHT22;3755;59.316;18.092;2023-08-17T07:43:54;19.70;99.90
7427;DHT22;3755;59.316;18.092;2023-08-17T07:46:21;19.50;99.90
7427;DHT22;3755;59.316;18.092;2023-08-17T07:48:49;19.60;99.90
7427;DHT22;3755;59.316;18.092;2023-08-17T07:51:16;19.70;99.90
7427;DHT22;3755;59.316;18.092;2023-08-17T07:53:43;19.60;99.90
7427;DHT22;3755;59.316;18.092;2023-08-17T07:56:10;19.70;99.90
7427;DHT22;3755;59.316;18.092;2023-08-17T07:58:39;19.90;99.90
7427;DHT22;3755;59.316;18.092;2023-08-17T08:01:06;20.00;99.90
7427;DHT22;3755;59.316;18.092;2023-08-17T08:03:33;20.00;99.90
7427;DHT22;3755;59.316;18.092;2023-08-17T08:06:00;20.00;99.90
7427;DHT22;3755;59.316;18.092;2023-08-17T08:08:28;20.00;99.90
7427;DHT22;3755;59.316;18.092;2023-08-17T08:10:55;20.10;99.90
7427;DHT22;3755;59.316;18.092;2023-08-17T08:13:22;20.20;99.90
7427;DHT22;3755;59.316;18.092;2023-08-17T08:15:51;20.20;99.90
7427;DHT22;3755;59.316;18.092;2023-08-17T08:18:18;20.30;99.90
7427;DHT22;3755;59.316;18.092;2023-08-17T08:20:45;20.10;99.90
7427;DHT22;3755;59.316;18.092;2023-08-17T08:23:12;20.10;99.90
7427;DHT22;3755;59.316;18.092;2023-08-17T08:25:40;20.10;99.90
7427;DHT22;3755;59.316;18.092;2023-08-17T08:28:08;20.20;99.90
7427;DHT22;3755;59.316;18.092;2023-08-17T08:30:36;20.40;99.90
7427;DHT22;3755;59.316;18.092;2023-08-17T08:33:05;20.60;99.90
7427;DHT22;3755;59.316;18.092;2023-08-17T08:35:32;20.50;99.90
7427;DHT22;3755;59.316;18.092;2023-08-17T08:38:00;20.60;99.90
7427;DHT22;3755;59.316;18.092;2023-08-17T08:40:28;20.60;99.90
7427;DHT22;3755;59.316;18.092;2023-08-17T08:42:56;20.50;99.90
7427;DHT22;3755;59.316;18.092;2023-08-17T08:45:23;20.50;99.90
7427;DHT22;3755;59.316;18.092;2023-08-17T08:47:52;20.80;99.90
7427;DHT22;3755;59.316;18.092;2023-08-17T08:50:25;21.00;99.90
7427;DHT22;3755;59.316;18.092;2023-08-17T08:52:58;20.90;99.90
7427;DHT22;3755;59.316;18.092;2023-08-17T08:55:29;20.80;99.90
7427;DHT22;3755;59.316;18.092;2023-08-17T08:57:56;20.60;99.90
7427;DHT22;3755;59.316;18.092;2023-08-17T09:00:25;20.50;99.90
7427;DHT22;3755;59.316;18.092;2023-08-17T09:02:53;20.50;99.90
7427;DHT22;3755;59.316;18.092;2023-08-17T09:05:22;20.50;99.90
7427;DHT22;3755;59.316;18.092;2023-08-17T09:07:49;20.60;99.90
7427;DHT22;3755;59.316;18.092;2023-08-17T09:10:17;20.60;99.90
7427;DHT22;3755;59.316;18.092;2023-08-17T09:12:46;20.80;99.90
7427;DHT22;3755;59.316;18.092;2023-08-17T09:15:13;20.90;99.90
7427;DHT22;3755;59.316;18.092;2023-08-17T09:17:40;20.90;99.90
7427;DHT22;3755;59.316;18.092;2023-08-17T09:20:09;20.90;99.90
7427;DHT22;3755;59.316;18.092;2023-08-17T09:22:39;20.80;99.90
7427;DHT22;3755;59.316;18.092;2023-08-17T09:25:08;20.60;99.90
7427;DHT22;3755;59.316;18.092;2023-08-17T09:27:37;20.60;99.90
7427;DHT22;3755;59.316;18.092;2023-08-17T09:30:05;20.60;99.90
7427;DHT22;3755;59.316;18.092;2023-08-17T09:32:34;20.70;99.90
7427;DHT22;3755;59.316;18.092;2023-08-17T09:35:01;20.70;99.90
7427;DHT22;3755;59.316;18.092;2023-08-17T09:37:29;20.60;99.90
7427;DHT22;3755;59.316;18.092;2023-08-17T09:39:58;20.50;99.90
7427;DHT22;3755;59.316;18.092;2023-08-17T09:42:25;20.70;99.90
7427;DHT22;3755;59.316;18.092;2023-08-17T09:44:54;21.00;99.90
7427;DHT22;3755;59.316;18.092;2023-08-17T09:47:22;21.30;99.90
7427;DHT22;3755;59.316;18.092;2023-08-17T09:49:49;21.40;99.90
7427;DHT22;3755;59.316;18.092;2023-08-17T09:52:17;21.50;99.90
7427;DHT22;3755;59.316;18.092;2023-08-17T09:54:45;21.70;99.90
7427;DHT22;3755;59.316;18.092;2023-08-17T09:57:15;21.90;99.90
7427;DHT22;3755;59.316;18.092;2023-08-17T09:59:43;21.80;99.90
7427;DHT22;3755;59.316;18.092;2023-08-17T10:02:17;21.70;99.90
7427;DHT22;3755;59.316;18.092;2023-08-17T10:04:48;21.70;99.90
7427;DHT22;3755;59.316;18.092;2023-08-17T10:07:19;21.80;99.90
7427;DHT22;3755;59.316;18.092;2023-08-17T10:09:51;22.10;99.90
7427;DHT22;3755;59.316;18.092;2023-08-17T10:12:23;22.20;99.90
7427;DHT22;3755;59.316;18.092;2023-08-17T10:14:56;22.40;99.90
7427;DHT22;3755;59.316;18.092;2023-08-17T10:17:26;22.20;99.90
7427;DHT22;3755;59.316;18.092;2023-08-17T10:19:56;21.90;99.90
7427;DHT22;3755;59.316;18.092;2023-08-17T10:22:30;21.50;99.90
7427;DHT22;3755;59.316;18.092;2023-08-17T10:25:00;21.20;99.90
7427;DHT22;3755;59.316;18.092;2023-08-17T10:27:29;21.50;99.90
7427;DHT22;3755;59.316;18.092;2023-08-17T10:29:58;21.70;99.90
7427;DHT22;3755;59.316;18.092;2023-08-17T10:32:26;21.90;99.90
7427;DHT22;3755;59.316;18.092;2023-08-17T10:34:54;21.90;99.90
7427;DHT22;3755;59.316;18.092;2023-08-17T10:37:22;22.00;99.90
7427;DHT22;3755;59.316;18.092;2023-08-17T10:39:50;22.10;99.90
7427;DHT22;3755;59.316;18.092;2023-08-17T10:42:32;22.20;99.90
7427;DHT22;3755;59.316;18.092;2023-08-17T10:44:59;22.10;99.90
7427;DHT22;3755;59.316;18.092;2023-08-17T10:47:30;22.10;99.90
7427;DHT22;3755;59.316;18.092;2023-08-17T10:49:59;22.20;99.90
7427;DHT22;3755;59.316;18.092;2023-08-17T10:52:28;22.00;99.90
7427;DHT22;3755;59.316;18.092;2023-08-17T10:54:56;22.10;99.90
7427;DHT22;3755;59.316;18.092;2023-08-17T10:57:35;22.20;99.90
7427;DHT22;3755;59.316;18.092;2023-08-17T11:00:07;22.30;99.90
7427;DHT22;3755;59.316;18.092;2023-08-17T11:02:38;22.20;99.90
7427;DHT22;3755;59.316;18.092;2023-08-17T11:05:05;22.10;99.90
7427;DHT22;3755;59.316;18.092;2023-08-17T11:07:39;22.10;99.90
7427;DHT22;3755;59.316;18.092;2023-08-17T11:10:27;22.20;99.90
7427;DHT22;3755;59.316;18.092;2023-08-17T11:12:57;21.90;99.90
7427;DHT22;3755;59.316;18.092;2023-08-17T11:15:35;21.50;99.90
7427;DHT22;3755;59.316;18.092;2023-08-17T11:18:05;21.40;99.90
7427;DHT22;3755;59.316;18.092;2023-08-17T11:20:33;21.60;99.90
7427;DHT22;3755;59.316;18.092;2023-08-17T11:23:00;21.90;99.90
7427;DHT22;3755;59.316;18.092;2023-08-17T11:25:29;22.10;99.90
7427;DHT22;3755;59.316;18.092;2023-08-17T11:27:58;22.40;99.90
7427;DHT22;3755;59.316;18.092;2023-08-17T11:30:27;22.50;99.90
7427;DHT22;3755;59.316;18.092;2023-08-17T11:32:55;22.80;99.90
7427;DHT22;3755;59.316;18.092;2023-08-17T11:35:23;23.10;99.90
7427;DHT22;3755;59.316;18.092;2023-08-17T11:37:50;23.20;99.90
7427;DHT22;3755;59.316;18.092;2023-08-17T11:40:17;23.20;99.90
7427;DHT22;3755;59.316;18.092;2023-08-17T11:42:45;23.20;99.90
7427;DHT22;3755;59.316;18.092;2023-08-17T11:45:14;23.10;99.90
7427;DHT22;3755;59.316;18.092;2023-08-17T11:47:42;23.20;99.90
7427;DHT22;3755;59.316;18.092;2023-08-17T11:50:10;23.10;99.90
7427;DHT22;3755;59.316;18.092;2023-08-17T11:52:38;22.90;99.90
7427;DHT22;3755;59.316;18.092;2023-08-17T11:55:06;22.60;99.90
7427;DHT22;3755;59.316;18.092;2023-08-17T11:57:36;22.20;99.90
7427;DHT22;3755;59.316;18.092;2023-08-17T12:00:05;22.00;99.90
7427;DHT22;3755;59.316;18.092;2023-08-17T12:02:34;22.00;99.90
7427;DHT22;3755;59.316;18.092;2023-08-17T12:05:08;22.20;99.90
7427;DHT22;3755;59.316;18.092;2023-08-17T12:07:35;22.20;99.90
7427;DHT22;3755;59.316;18.092;2023-08-17T12:10:03;22.30;99.90
7427;DHT22;3755;59.316;18.092;2023-08-17T12:12:35;22.40;99.90
7427;DHT22;3755;59.316;18.092;2023-08-17T12:15:04;22.40;99.90
7427;DHT22;3755;59.316;18.092;2023-08-17T12:17:31;22.40;99.90
7427;DHT22;3755;59.316;18.092;2023-08-17T12:19:59;22.30;99.90
7427;DHT22;3755;59.316;18.092;2023-08-17T12:22:27;22.40;99.90
7427;DHT22;3755;59.316;18.092;2023-08-17T12:24:54;22.50;99.90
7427;DHT22;3755;59.316;18.092;2023-08-17T12:27:22;22.60;99.90
7427;DHT22;3755;59.316;18.092;2023-08-17T12:29:51;22.60;99.90
7427;DHT22;3755;59.316;18.092;2023-08-17T12:32:19;22.60;99.90
7427;DHT22;3755;59.316;18.092;2023-08-17T12:34:47;22.80;99.90
7427;DHT22;3755;59.316;18.092;2023-08-17T12:37:21;22.80;99.90
7427;DHT22;3755;59.316;18.092;2023-08-17T12:39:48;22.60;99.90
7427;DHT22;3755;59.316;18.092;2023-08-17T12:42:15;22.60;99.90
7427;DHT22;3755;59.316;18.092;2023-08-17T12:44:44;22.70;99.90
7427;DHT22;3755;59.316;18.092;2023-08-17T12:47:11;22.90;99.90
7427;DHT22;3755;59.316;18.092;2023-08-17T12:49:38;23.20;99.90
7427;DHT22;3755;59.316;18.092;2023-08-17T12:52:04;23.30;99.90
7427;DHT22;3755;59.316;18.092;2023-08-17T12:54:33;23.50;99.90
7427;DHT22;3755;59.316;18.092;2023-08-17T12:57:00;23.40;99.90
7427;DHT22;3755;59.316;18.092;2023-08-17T12:59:28;23.10;99.90
7427;DHT22;3755;59.316;18.092;2023-08-17T13:01:55;23.00;99.90
7427;DHT22;3755;59.316;18.092;2023-08-17T13:04:23;23.10;99.90
7427;DHT22;3755;59.316;18.092;2023-08-17T13:06:50;23.40;99.90
7427;DHT22;3755;59.316;18.092;2023-08-17T13:09:17;23.40;99.90
7427;DHT22;3755;59.316;18.092;2023-08-17T13:11:54;23.50;99.90
7427;DHT22;3755;59.316;18.092;2023-08-17T13:14:25;23.20;99.90
7427;DHT22;3755;59.316;18.092;2023-08-17T13:16:52;22.90;99.90
7427;DHT22;3755;59.316;18.092;2023-08-17T13:19:20;22.80;99.90
7427;DHT22;3755;59.316;18.092;2023-08-17T13:21:47;22.80;99.90
7427;DHT22;3755;59.316;18.092;2023-08-17T13:24:14;22.90;99.90
7427;DHT22;3755;59.316;18.092;2023-08-17T13:26:41;22.80;99.90
7427;DHT22;3755;59.316;18.092;2023-08-17T13:29:10;22.90;99.90
7427;DHT22;3755;59.316;18.092;2023-08-17T13:31:37;22.90;99.90
7427;DHT22;3755;59.316;18.092;2023-08-17T13:34:04;22.90;99.90
7427;DHT22;3755;59.316;18.092;2023-08-17T13:36:31;22.70;99.90
7427;DHT22;3755;59.316;18.092;2023-08-17T13:38:58;22.80;99.90
7427;DHT22;3755;59.316;18.092;2023-08-17T13:41:26;22.80;99.90
7427;DHT22;3755;59.316;18.092;2023-08-17T13:43:53;22.90;99.90
7427;DHT22;3755;59.316;18.092;2023-08-17T13:46:22;22.90;99.90
7427;DHT22;3755;59.316;18.092;2023-08-17T13:48:49;23.20;99.90
7427;DHT22;3755;59.316;18.092;2023-08-17T13:51:16;23.20;99.90
7427;DHT22;3755;59.316;18.092;2023-08-17T13:53:44;23.10;99.90
7427;DHT22;3755;59.316;18.092;2023-08-17T13:56:12;23.10;99.90
7427;DHT22;3755;59.316;18.092;2023-08-17T13:58:39;23.00;99.90
7427;DHT22;3755;59.316;18.092;2023-08-17T14:01:06;22.90;99.90
7427;DHT22;3755;59.316;18.092;2023-08-17T14:03:35;22.80;99.90
7427;DHT22;3755;59.316;18.092;2023-08-17T14:06:02;22.60;99.90
7427;DHT22;3755;59.316;18.092;2023-08-17T14:08:30;22.60;99.90
7427;DHT22;3755;59.316;18.092;2023-08-17T14:10:57;22.50;99.90
7427;DHT22;3755;59.316;18.092;2023-08-17T14:13:24;22.30;99.90
7427;DHT22;3755;59.316;18.092;2023-08-17T14:15:51;22.00;99.90
7427;DHT22;3755;59.316;18.092;2023-08-17T14:18:21;21.90;99.90
7427;DHT22;3755;59.316;18.092;2023-08-17T14:20:50;21.70;99.90
7427;DHT22;3755;59.316;18.092;2023-08-17T14:23:17;21.50;99.90
7427;DHT22;3755;59.316;18.092;2023-08-17T14:25:44;21.40;99.90
7427;DHT22;3755;59.316;18.092;2023-08-17T14:28:12;21.40;99.90
7427;DHT22;3755;59.316;18.092;2023-08-17T14:30:39;21.60;99.90
7427;DHT22;3755;59.316;18.092;2023-08-17T14:33:06;21.60;99.90
7427;DHT22;3755;59.316;18.092;2023-08-17T14:35:33;21.80;99.90
7427;DHT22;3755;59.316;18.092;2023-08-17T14:38:02;21.90;99.90
7427;DHT22;3755;59.316;18.092;2023-08-17T14:40:29;21.90;99.90
7427;DHT22;3755;59.316;18.092;2023-08-17T14:42:56;22.10;99.90
7427;DHT22;3755;59.316;18.092;2023-08-17T14:45:23;22.10;99.90
7427;DHT22;3755;59.316;18.092;2023-08-17T14:47:51;22.20;99.90
7427;DHT22;3755;59.316;18.092;2023-08-17T14:50:18;22.40;99.90
7427;DHT22;3755;59.316;18.092;2023-08-17T14:52:45;22.40;99.90
7427;DHT22;3755;59.316;18.092;2023-08-17T14:55:14;22.40;99.90
7427;DHT22;3755;59.316;18.092;2023-08-17T14:57:41;22.30;99.90
7427;DHT22;3755;59.316;18.092;2023-08-17T15:00:09;22.40;99.90
7427;DHT22;3755;59.316;18.092;2023-08-17T15:02:36;22.40;99.90
7427;DHT22;3755;59.316;18.092;2023-08-17T15:05:04;22.40;99.90
7427;DHT22;3755;59.316;18.092;2023-08-17T15:07:31;22.40;99.90
7427;DHT22;3755;59.316;18.092;2023-08-17T15:09:59;22.30;99.90
7427;DHT22;3755;59.316;18.092;2023-08-17T15:12:27;22.20;99.90
7427;DHT22;3755;59.316;18.092;2023-08-17T15:14:55;22.20;99.90
7427;DHT22;3755;59.316;18.092;2023-08-17T15:17:22;22.20;99.90
7427;DHT22;3755;59.316;18.092;2023-08-17T15:19:49;22.20;99.90
7427;DHT22;3755;59.316;18.092;2023-08-17T15:22:16;22.30;99.90
7427;DHT22;3755;59.316;18.092;2023-08-17T15:24:44;22.20;99.90
7427;DHT22;3755;59.316;18.092;2023-08-17T15:27:11;22.00;99.90
7427;DHT22;3755;59.316;18.092;2023-08-17T15:29:40;22.10;99.90
7427;DHT22;3755;59.316;18.092;2023-08-17T15:32:07;22.10;99.90
7427;DHT22;3755;59.316;18.092;2023-08-17T15:34:35;21.80;99.90
7427;DHT22;3755;59.316;18.092;2023-08-17T15:37:02;21.70;99.90
7427;DHT22;3755;59.316;18.092;2023-08-17T15:39:30;21.70;99.90
7427;DHT22;3755;59.316;18.092;2023-08-17T15:41:57;21.60;99.90
7427;DHT22;3755;59.316;18.092;2023-08-17T15:44:24;21.50;99.90
7427;DHT22;3755;59.316;18.092;2023-08-17T15:46:53;21.20;99.90
7427;DHT22;3755;59.316;18.092;2023-08-17T15:49:20;21.30;99.90